createdAt,value
2022-12-13T00:01:45.575Z,24.33
2022-12-13T00:04:13.795Z,27.23
2022-12-13T00:06:40.510Z,25.80
2022-12-13T00:09:07.251Z,24.27
2022-12-13T00:11:34.215Z,26.02
2022-12-13T00:14:00.878Z,21.20
2022-12-13T00:16:27.919Z,25.08
2022-12-13T00:18:55.865Z,21.40
2022-12-13T00:21:22.504Z,25.95
2022-12-13T00:23:49.330Z,25.80
2022-12-13T00:26:17.777Z,26.13
2022-12-13T00:28:44.786Z,22.20
2022-12-13T00:33:40.099Z,25.65
2022-12-13T00:36:07.729Z,25.05
2022-12-13T00:38:35.035Z,27.27
2022-12-13T00:41:12.245Z,24.80
2022-12-13T00:50:55.709Z,24.15
2022-12-13T00:53:22.373Z,25.10
2022-12-13T00:55:49.006Z,23.10
2022-12-13T01:03:20.731Z,25.52
2022-12-13T01:08:14.062Z,26.02
2022-12-13T01:13:13.426Z,24.95
2022-12-13T01:15:41.262Z,25.33
2022-12-13T01:18:08.331Z,26.80
2022-12-13T01:20:35.111Z,26.15
2022-12-13T01:23:01.785Z,25.33
2022-12-13T01:32:44.999Z,26.42
2022-12-13T01:35:14.057Z,27.67
2022-12-13T01:37:41.050Z,24.25
2022-12-13T01:42:33.548Z,26.05
2022-12-13T01:45:00.321Z,27.35
2022-12-13T01:47:40.980Z,26.83
2022-12-13T01:50:12.626Z,27.52
2022-12-13T01:52:39.905Z,25.42
2022-12-13T01:57:34.002Z,27.25
2022-12-13T02:00:00.836Z,26.23
2022-12-13T02:04:55.771Z,27.65
2022-12-13T02:07:25.232Z,27.55
2022-12-13T02:09:57.121Z,28.83
2022-12-13T02:12:29.988Z,25.85
2022-12-13T02:22:53.094Z,27.48
2022-12-13T02:30:20.706Z,27.30
2022-12-13T02:32:53.300Z,27.95
2022-12-13T02:35:38.550Z,28.27
2022-12-13T02:38:14.436Z,29.33
2022-12-13T02:40:50.472Z,28.95
2022-12-13T02:43:25.577Z,29.33
2022-12-13T02:46:01.723Z,32.80
2022-12-13T02:48:36.579Z,31.50
2022-12-13T02:55:56.584Z,27.90
2022-12-13T02:58:25.223Z,26.50
2022-12-13T03:00:55.172Z,33.03
2022-12-13T03:03:33.978Z,35.75
2022-12-13T03:06:22.360Z,28.88
2022-12-13T03:09:10.558Z,27.38
2022-12-13T03:12:01.087Z,27.30
2022-12-13T03:16:55.015Z,27.58
2022-12-13T03:21:52.877Z,28.20
2022-12-13T03:24:20.538Z,27.73
2022-12-13T03:26:48.167Z,32.45
2022-12-13T03:29:24.096Z,28.42
2022-12-13T03:31:52.692Z,28.55
2022-12-13T03:36:45.084Z,27.00
2022-12-13T03:39:11.960Z,27.50
2022-12-13T03:44:05.176Z,27.73
2022-12-13T03:46:32.094Z,28.40
2022-12-13T03:48:58.850Z,25.23
2022-12-13T03:51:25.510Z,27.00
2022-12-13T03:53:52.159Z,32.22
2022-12-13T03:58:44.395Z,26.02
2022-12-13T04:01:12.754Z,29.10
2022-12-13T04:06:06.360Z,29.73
2022-12-13T04:08:33.348Z,24.33
2022-12-13T04:11:00.168Z,24.52
2022-12-13T04:13:32.737Z,24.30
2022-12-13T04:23:16.118Z,24.95
2022-12-13T04:25:43.479Z,24.55
2022-12-13T04:28:10.806Z,25.33
2022-12-13T04:33:03.259Z,25.17
2022-12-13T04:35:29.927Z,25.23
2022-12-13T04:37:57.529Z,26.17
2022-12-13T04:40:24.376Z,25.33
2022-12-13T04:42:53.984Z,23.23
2022-12-13T04:45:21.966Z,23.85
2022-12-13T04:50:15.112Z,25.33
2022-12-13T04:52:41.770Z,24.45
2022-12-13T05:00:00.167Z,25.25
2022-12-13T05:04:54.268Z,25.30
2022-12-13T05:07:23.436Z,24.52
2022-12-13T05:09:50.154Z,23.33
2022-12-13T05:12:22.240Z,24.55
2022-12-13T05:14:49.732Z,25.65
2022-12-13T05:17:16.819Z,23.75
2022-12-13T05:19:43.600Z,23.23
2022-12-13T05:27:24.594Z,23.55
2022-12-13T05:30:02.992Z,24.05
2022-12-13T05:32:44.287Z,24.17
2022-12-13T05:37:41.315Z,25.73
2022-12-13T05:40:08.387Z,25.63
2022-12-13T05:42:36.543Z,27.40
2022-12-13T05:45:06.092Z,26.10
2022-12-13T05:47:32.760Z,29.13
2022-12-13T05:52:30.675Z,27.52
2022-12-13T05:55:01.080Z,27.27
2022-12-13T05:57:28.176Z,27.50
2022-12-13T05:59:54.967Z,24.83
2022-12-13T06:02:22.141Z,25.42
2022-12-13T06:04:48.988Z,26.23
2022-12-13T06:07:15.715Z,28.30
2022-12-13T06:09:42.529Z,26.30
2022-12-13T06:14:40.391Z,28.45
2022-12-13T06:17:07.989Z,27.63
2022-12-13T06:29:27.856Z,22.42
2022-12-13T06:32:01.834Z,22.55
2022-12-13T06:34:30.932Z,22.23
2022-12-13T06:36:57.584Z,20.70
2022-12-13T06:39:24.241Z,23.20
2022-12-13T06:46:50.150Z,19.48
2022-12-13T06:49:53.925Z,19.77
2022-12-13T06:52:20.618Z,17.95
2022-12-13T06:54:47.272Z,18.33
2022-12-13T06:59:40.161Z,18.90
2022-12-13T07:02:25.233Z,17.90
2022-12-13T07:04:52.994Z,18.38
2022-12-13T07:07:19.692Z,18.55
2022-12-13T07:09:46.356Z,19.05
2022-12-13T07:14:41.024Z,22.48
2022-12-13T07:17:08.126Z,20.23
2022-12-13T07:24:25.656Z,19.83
2022-12-13T07:29:22.168Z,16.42
2022-12-13T07:31:49.753Z,16.80
2022-12-13T07:34:16.472Z,18.35
2022-12-13T07:36:43.190Z,17.38
2022-12-13T07:39:10.538Z,19.38
2022-12-13T07:44:02.858Z,19.65
2022-12-13T07:46:32.837Z,18.52
2022-12-13T07:49:04.195Z,19.23
2022-12-13T07:51:33.798Z,18.45
2022-12-13T07:54:00.807Z,19.88
2022-12-13T07:56:33.875Z,27.73
2022-12-13T07:59:00.598Z,22.35
2022-12-13T08:01:27.356Z,23.83
2022-12-13T08:03:54.384Z,17.30
2022-12-13T08:06:21.093Z,21.52
2022-12-13T08:08:50.756Z,23.02
2022-12-13T08:11:17.734Z,25.67
2022-12-13T08:13:44.625Z,23.35
2022-12-13T08:16:26.219Z,24.52
2022-12-13T08:21:52.489Z,30.50
2022-12-13T08:24:15.680Z,25.65
2022-12-13T08:26:42.637Z,19.13
2022-12-13T08:29:09.366Z,17.58
2022-12-13T08:31:36.066Z,16.70
2022-12-13T08:34:02.713Z,16.30
2022-12-13T08:36:29.392Z,17.85
2022-12-13T08:38:57.089Z,16.73
2022-12-13T08:41:24.322Z,16.50
2022-12-13T08:43:51.321Z,15.98
2022-12-13T08:51:11.906Z,23.40
2022-12-13T08:56:05.349Z,19.15
2022-12-13T08:58:32.268Z,17.75
2022-12-13T09:00:59.061Z,16.65
2022-12-13T09:03:25.991Z,14.38
2022-12-13T09:05:52.661Z,15.18
2022-12-13T09:10:46.093Z,16.02
2022-12-13T09:13:13.131Z,16.10
2022-12-13T09:16:01.596Z,15.25
2022-12-13T09:18:34.704Z,13.63
2022-12-13T09:21:12.063Z,15.05
2022-12-13T09:23:46.156Z,13.93
2022-12-13T09:26:14.913Z,13.90
2022-12-13T09:28:41.846Z,14.35
2022-12-13T09:31:14.379Z,12.57
2022-12-13T09:33:41.962Z,16.27
2022-12-13T09:36:10.805Z,14.27
2022-12-13T09:38:37.475Z,15.00
2022-12-13T09:41:28.800Z,14.82
2022-12-13T09:44:00.959Z,14.20
2022-12-13T09:46:34.976Z,14.27
2022-12-13T09:52:10.748Z,14.67
2022-12-13T09:54:47.779Z,14.60
2022-12-13T09:57:30.954Z,15.15
2022-12-13T10:07:19.488Z,14.35
2022-12-13T10:09:46.662Z,12.27
2022-12-13T10:12:15.200Z,14.38
2022-12-13T10:14:50.576Z,15.93
2022-12-13T10:17:20.298Z,14.73
2022-12-13T10:24:50.586Z,14.75
2022-12-13T10:27:18.927Z,14.55
2022-12-13T10:34:56.779Z,14.85
2022-12-13T10:39:48.941Z,14.48
2022-12-13T10:42:22.818Z,13.98
2022-12-13T10:47:33.692Z,13.70
2022-12-13T10:50:01.462Z,15.02
2022-12-13T10:55:23.108Z,15.30
2022-12-13T11:05:26.238Z,14.43
2022-12-13T11:07:55.363Z,15.65
2022-12-13T11:10:28.803Z,14.25
2022-12-13T11:13:02.945Z,16.77
2022-12-13T11:18:04.811Z,14.18
2022-12-13T11:20:34.243Z,14.48
2022-12-13T11:23:02.937Z,14.75
2022-12-13T11:28:26.474Z,14.77
2022-12-13T11:31:07.467Z,14.15
2022-12-13T11:33:47.823Z,14.73
2022-12-13T11:44:27.738Z,19.75
2022-12-13T11:46:55.400Z,15.30
2022-12-13T11:49:40.582Z,17.25
2022-12-13T12:00:12.885Z,13.50
2022-12-13T12:02:44.738Z,14.13
2022-12-13T12:05:40.718Z,18.92
2022-12-13T12:10:47.464Z,15.48
2022-12-13T12:15:55.224Z,17.63
2022-12-13T12:18:22.378Z,15.25
2022-12-13T12:23:22.706Z,24.88
2022-12-13T12:28:56.613Z,17.52
2022-12-13T12:31:51.412Z,15.25
2022-12-13T12:34:27.314Z,14.50
2022-12-13T12:39:36.900Z,15.45
2022-12-13T12:44:47.382Z,15.45
2022-12-13T12:50:04.101Z,18.75
2022-12-13T12:52:42.866Z,18.50
2022-12-13T12:55:12.539Z,16.08
2022-12-13T13:02:49.418Z,20.67
2022-12-13T13:05:28.660Z,27.92
2022-12-13T13:07:57.970Z,20.80
2022-12-13T13:10:26.081Z,18.02
2022-12-13T13:13:11.579Z,26.50
2022-12-13T13:15:39.393Z,20.02
2022-12-13T13:24:01.640Z,19.23
2022-12-13T13:26:48.966Z,16.92
2022-12-13T13:29:27.244Z,15.02
2022-12-13T13:32:01.503Z,16.48
2022-12-13T13:34:30.421Z,18.15
2022-12-13T13:36:58.015Z,18.05
2022-12-13T13:39:27.711Z,18.45
2022-12-13T13:44:45.873Z,17.73
2022-12-13T13:47:16.628Z,18.15
2022-12-13T13:49:57.063Z,16.25
2022-12-13T13:52:28.476Z,15.63
2022-12-13T13:55:22.972Z,16.33
2022-12-13T13:58:09.673Z,16.55
2022-12-13T14:06:14.908Z,15.23
2022-12-13T14:08:54.114Z,14.85
2022-12-13T14:14:23.147Z,16.33
2022-12-13T14:17:11.782Z,15.20
2022-12-13T14:19:56.476Z,15.60
2022-12-13T14:22:26.450Z,15.43
2022-12-13T14:27:37.118Z,15.52
2022-12-13T14:30:27.474Z,16.17
2022-12-13T14:32:51.594Z,15.48
2022-12-13T14:35:29.441Z,15.10
2022-12-13T14:37:59.152Z,16.02
2022-12-13T14:40:30.523Z,15.82
2022-12-13T14:42:57.572Z,15.45
2022-12-13T14:45:27.886Z,16.05
2022-12-13T14:47:55.212Z,15.38
2022-12-13T14:50:22.157Z,15.38
2022-12-13T14:52:50.569Z,15.75
2022-12-13T14:55:23.289Z,15.65
2022-12-13T15:00:24.164Z,15.23
2022-12-13T15:05:57.872Z,16.35
2022-12-13T15:08:24.841Z,15.10
2022-12-13T15:15:52.778Z,16.83
2022-12-13T15:18:20.895Z,16.67
2022-12-13T15:26:03.925Z,14.80
2022-12-13T15:28:35.605Z,14.55
2022-12-13T15:31:04.089Z,15.07
2022-12-13T15:33:34.424Z,15.25
2022-12-13T15:38:36.284Z,14.63
2022-12-13T15:41:04.051Z,15.90
2022-12-13T15:43:36.893Z,14.20
2022-12-13T15:46:06.606Z,16.80
2022-12-13T15:58:58.461Z,15.45
2022-12-13T16:03:55.491Z,15.18
2022-12-13T16:06:24.031Z,14.10
2022-12-13T16:18:58.446Z,26.05
2022-12-13T16:21:25.683Z,20.02
2022-12-13T16:23:52.442Z,21.52
2022-12-13T16:28:52.256Z,20.17
2022-12-13T16:31:23.334Z,16.67
2022-12-13T16:36:15.584Z,21.63
2022-12-13T16:38:42.363Z,19.25
2022-12-13T16:43:37.852Z,16.38
2022-12-13T16:47:09.954Z,24.35
2022-12-13T16:48:52.954Z,22.73
2022-12-13T16:51:19.845Z,21.83
2022-12-13T16:53:46.793Z,19.67
2022-12-13T17:01:12.116Z,18.65
2022-12-13T17:03:39.313Z,17.98
2022-12-13T17:06:06.364Z,19.77
2022-12-13T17:08:34.026Z,21.42
2022-12-13T17:11:00.833Z,25.05
2022-12-13T17:13:28.488Z,23.77
2022-12-13T17:15:59.767Z,18.88
2022-12-13T17:20:58.352Z,18.45
2022-12-13T17:23:25.852Z,17.95
2022-12-13T17:25:58.507Z,24.65
2022-12-13T17:28:25.660Z,27.95
2022-12-13T17:30:54.680Z,22.45
2022-12-13T17:33:22.197Z,23.48
2022-12-13T17:35:48.946Z,27.70
2022-12-13T17:40:40.981Z,18.38
2022-12-13T17:43:07.642Z,18.00
2022-12-13T17:45:34.275Z,18.05
2022-12-13T17:48:00.926Z,19.42
2022-12-13T17:50:28.152Z,21.60
2022-12-13T17:52:54.816Z,20.98
2022-12-13T17:55:21.425Z,18.73
2022-12-13T17:57:48.062Z,18.25
2022-12-13T18:00:15.103Z,20.40
2022-12-13T18:02:42.607Z,19.50
2022-12-13T18:07:50.964Z,20.42
2022-12-13T18:10:17.749Z,20.00
2022-12-13T18:12:44.853Z,18.73
2022-12-13T18:15:13.731Z,20.70
2022-12-13T18:18:10.263Z,20.90
2022-12-13T18:40:42.564Z,17.67
2022-12-13T18:43:09.507Z,19.50
2022-12-13T18:45:36.680Z,19.15
2022-12-13T18:48:03.561Z,19.20
2022-12-13T18:50:30.334Z,20.63
2022-12-13T18:52:57.001Z,20.92
2022-12-13T18:55:23.756Z,23.08
2022-12-13T18:57:51.607Z,22.15
2022-12-13T19:00:18.626Z,22.40
2022-12-13T19:02:45.384Z,22.08
2022-12-13T19:05:12.286Z,24.33
2022-12-13T19:07:39.126Z,21.08
2022-12-13T19:10:05.899Z,20.77
2022-12-13T19:12:32.746Z,20.80
2022-12-13T19:14:59.348Z,20.92
2022-12-13T19:19:51.897Z,22.67
2022-12-13T19:22:18.669Z,21.52
2022-12-13T19:24:45.630Z,19.20
2022-12-13T19:27:12.406Z,19.75
2022-12-13T19:29:39.126Z,19.98
2022-12-13T19:37:00.258Z,19.27
2022-12-13T19:39:29.714Z,20.77
2022-12-13T19:41:56.610Z,20.10
2022-12-13T19:44:23.981Z,20.30
2022-12-13T19:46:51.122Z,21.45
2022-12-13T19:49:19.676Z,21.92
2022-12-13T19:51:46.334Z,24.38
2022-12-13T19:54:36.017Z,27.08
2022-12-13T19:57:07.132Z,25.42
2022-12-13T19:59:34.184Z,28.80
2022-12-13T20:06:53.319Z,23.40
2022-12-13T20:09:20.053Z,22.15
2022-12-13T20:11:47.018Z,78.88
2022-12-13T20:14:13.624Z,34.78
2022-12-13T20:16:42.115Z,30.40
2022-12-13T20:19:09.799Z,27.92
2022-12-13T20:21:36.586Z,27.25
2022-12-13T20:26:30.294Z,24.65
2022-12-13T20:28:57.260Z,37.53
2022-12-13T20:38:47.212Z,25.33
2022-12-13T20:41:15.023Z,23.05
2022-12-13T20:46:09.678Z,25.02
2022-12-13T20:48:37.329Z,21.75
2022-12-13T20:53:33.928Z,49.28
2022-12-13T21:00:55.604Z,42.25
2022-12-13T21:03:22.489Z,22.40
2022-12-13T21:05:49.250Z,20.55
2022-12-13T21:08:35.462Z,21.52
2022-12-13T21:11:22.802Z,20.45
2022-12-13T21:13:50.369Z,21.33
2022-12-13T21:17:07.137Z,34.47
2022-12-13T21:22:02.180Z,28.00
2022-12-13T21:24:29.578Z,25.63
2022-12-13T21:29:22.256Z,22.45
2022-12-13T21:31:53.455Z,21.13
2022-12-13T21:34:20.420Z,20.65
2022-12-13T21:36:47.998Z,19.58
2022-12-13T21:39:18.607Z,18.73
2022-12-13T21:44:11.502Z,25.10
2022-12-13T21:51:51.415Z,24.70
2022-12-13T21:54:18.109Z,28.52
2022-12-13T21:59:28.953Z,18.45
2022-12-13T22:02:12.540Z,18.02
2022-12-13T22:04:49.552Z,18.27
2022-12-13T22:12:18.551Z,18.23
2022-12-13T22:14:45.677Z,19.98
2022-12-13T22:17:12.360Z,22.73
2022-12-13T22:19:39.189Z,21.90
2022-12-13T22:22:05.974Z,19.75
2022-12-13T22:24:32.917Z,19.60
2022-12-13T22:26:59.798Z,19.20
2022-12-13T22:29:26.441Z,19.33
2022-12-13T22:31:53.093Z,18.50
2022-12-13T22:34:19.725Z,18.35
2022-12-13T22:36:46.423Z,18.27
2022-12-13T22:39:20.238Z,17.15
2022-12-13T22:41:47.604Z,18.30
2022-12-13T22:44:14.733Z,18.70
2022-12-13T22:46:41.554Z,19.05
2022-12-13T22:49:08.810Z,19.80
2022-12-13T22:51:35.723Z,19.35
2022-12-13T22:54:02.434Z,17.85
2022-12-13T22:56:29.138Z,18.13
2022-12-13T22:59:01.898Z,18.58
2022-12-13T23:01:29.635Z,18.45
2022-12-13T23:03:56.400Z,17.92
2022-12-13T23:06:23.955Z,18.65
2022-12-13T23:08:51.591Z,18.73
2022-12-13T23:11:36.808Z,19.20
2022-12-13T23:16:31.247Z,19.15
2022-12-13T23:19:31.853Z,19.95
2022-12-13T23:21:48.511Z,19.55
2022-12-13T23:24:15.626Z,19.08
2022-12-13T23:26:42.348Z,19.38
2022-12-13T23:36:27.726Z,17.98
2022-12-13T23:38:54.716Z,19.08
2022-12-13T23:41:29.415Z,18.88
2022-12-13T23:43:59.721Z,18.08
2022-12-13T23:46:31.704Z,17.02
2022-12-13T23:48:59.873Z,17.58
2022-12-13T23:51:26.707Z,18.75
2022-12-13T23:53:53.669Z,19.67
2022-12-13T23:56:20.967Z,18.10
2022-12-13T23:58:47.829Z,20.33
